Time;durP1;ratioP1;P1;durP2;ratioP2;P2;SDS_P1;SDS_P2;PMS_P1;PMS_P2;Temp;Humidity;BMP_temperature;BMP_pressure;BME280_temperature;BME280_humidity;BME280_pressure;Samples;Min_cycle;Max_cycle;Signal;HPM_P1;HPM_P2
2022/06/17 00:01:01;;;;;;;9.20;8.30;;;;;;;19.64;72.80;95164.97;5075178;28;20449;-79
2022/06/17 00:03:31;;;;;;;9.60;8.60;;;;;;;19.53;72.85;95161.88;5075470;28;20945;-79
2022/06/17 00:06:01;;;;;;;9.57;8.70;;;;;;;19.54;73.02;95164.41;5075374;28;21066;-78
2022/06/17 00:08:31;;;;;;;10.93;9.83;;;;;;;19.25;74.23;95157.09;5075078;28;20437;-78
2022/06/17 00:10:58;;;;;;;9.87;9.00;;;;;;;19.27;74.25;95159.56;5075370;28;20442;-78
2022/06/17 00:13:27;;;;;;;10.20;9.37;;;;;;;19.01;75.20;95151.91;5040005;28;20444;-78
2022/06/17 00:15:54;;;;;;;12.20;9.43;;;;;;;19.02;75.88;95150.91;5075406;28;20894;-78
2022/06/17 00:18:22;;;;;;;8.50;7.70;;;;;;;18.88;75.78;95145.34;5075424;28;20433;-78
2022/06/17 00:20:50;;;;;;;9.63;8.77;;;;;;;18.73;76.76;95143.59;5075192;28;20435;-78
2022/06/17 00:23:20;;;;;;;9.20;8.30;;;;;;;18.63;77.07;95149.13;5075113;28;20461;-78
2022/06/17 00:25:48;;;;;;;9.93;8.93;;;;;;;18.56;77.45;95146.31;5075211;28;20481;-78
2022/06/17 00:28:17;;;;;;;9.47;8.57;;;;;;;18.60;77.09;95145.97;5074816;28;20448;-78
2022/06/17 00:30:46;;;;;;;8.50;7.80;;;;;;;18.60;77.48;95149.44;5074223;28;20448;-78
2022/06/17 00:33:15;;;;;;;8.50;7.87;;;;;;;18.62;77.33;95157.25;5075093;28;20485;-78
2022/06/17 00:35:45;;;;;;;9.27;8.00;;;;;;;18.56;77.46;95161.44;5074741;28;20451;-78
2022/06/17 00:38:14;;;;;;;16.50;8.43;;;;;;;18.57;77.60;95155.13;5074801;28;20486;-78
2022/06/17 00:40:42;;;;;;;11.00;8.30;;;;;;;18.56;77.13;95153.47;5074708;28;20930;-79
2022/06/17 00:43:17;;;;;;;12.93;8.57;;;;;;;18.52;77.49;95150.31;5074473;28;20821;-79
2022/06/17 00:45:52;;;;;;;10.00;8.77;;;;;;;18.60;77.35;95151.28;5074475;28;20492;-79
2022/06/17 00:48:24;;;;;;;8.77;8.07;;;;;;;18.62;76.97;95152.78;5074687;28;20455;-79
2022/06/17 00:50:56;;;;;;;13.07;8.40;;;;;;;18.70;77.03;95146.59;5075089;28;20451;-78
2022/06/17 00:53:25;;;;;;;8.80;7.43;;;;;;;18.62;76.99;95135.97;5074613;28;20539;-79
2022/06/17 00:55:55;;;;;;;10.83;8.67;;;;;;;18.66;77.11;95142.63;5074541;28;20865;-79
2022/06/17 00:58:25;;;;;;;7.70;6.93;;;;;;;18.56;77.01;95146.31;5074504;28;20442;-79
2022/06/17 01:00:58;;;;;;;10.70;8.17;;;;;;;18.47;77.02;95142.00;5074180;28;20449;-78
2022/06/17 01:03:28;;;;;;;8.47;7.77;;;;;;;18.41;77.59;95132.06;5074557;28;20842;-78
2022/06/17 01:06:01;;;;;;;9.37;8.40;;;;;;;18.52;77.41;95138.88;5074094;28;20990;-78
2022/06/17 01:11:17;;;;;;;8.00;7.30;;;;;;;18.36;77.90;95130.94;5074327;28;20543;-78
2022/06/17 01:13:49;;;;;;;11.93;7.93;;;;;;;18.39;77.87;95138.56;5074392;28;20976;-78
2022/06/17 01:16:19;;;;;;;7.87;7.00;;;;;;;18.37;77.88;95132.59;5074293;28;20540;-78
2022/06/17 01:18:48;;;;;;;7.90;7.30;;;;;;;18.39;78.08;95131.41;5074267;28;20456;-78
2022/06/17 01:21:21;;;;;;;11.83;7.70;;;;;;;18.41;77.68;95134.72;5073981;28;20448;-78
2022/06/17 01:23:50;;;;;;;9.67;7.47;;;;;;;18.38;77.67;95129.75;5073809;28;20450;-79
2022/06/17 01:26:17;;;;;;;8.00;7.30;;;;;;;18.37;77.92;95130.78;5073775;28;21001;-78
2022/06/17 01:28:44;;;;;;;9.53;7.50;;;;;;;18.37;77.72;95128.13;5074114;28;20475;-78
2022/06/17 01:31:12;;;;;;;9.33;8.20;;;;;;;18.41;77.43;95129.41;5073900;28;20445;-78
2022/06/17 01:33:42;;;;;;;7.23;6.63;;;;;;;18.42;77.71;95122.28;5073795;28;20810;-79
2022/06/17 01:36:13;;;;;;;7.57;6.83;;;;;;;18.43;77.22;95123.94;5073962;28;20443;-79
2022/06/17 01:38:42;;;;;;;7.40;6.70;;;;;;;18.47;77.33;95128.72;5073870;28;20464;-79
2022/06/17 01:41:14;;;;;;;14.40;6.87;;;;;;;18.51;77.05;95118.59;5073562;28;20528;-79
2022/06/17 01:43:45;;;;;;;7.30;6.70;;;;;;;18.45;77.44;95120.09;5039517;28;20824;-79
2022/06/17 01:46:18;;;;;;;6.70;6.10;;;;;;;18.26;77.80;95110.72;5073498;28;20483;-79
2022/06/17 01:48:50;;;;;;;9.70;7.70;;;;;;;18.06;79.56;95108.63;5073318;28;20449;-79
2022/06/17 01:51:20;;;;;;;10.10;8.00;;;;;;;17.77;80.64;95101.22;5073546;28;20445;-78
2022/06/17 01:53:53;;;;;;;7.40;6.70;;;;;;;17.81;80.79;95098.06;5073786;28;20451;-79
2022/06/17 01:56:25;;;;;;;7.53;6.83;;;;;;;17.71;80.61;95096.59;5073276;28;20536;-78
2022/06/17 01:58:56;;;;;;;8.00;7.20;;;;;;;17.76;80.81;95103.06;5073207;28;20448;-79
2022/06/17 02:01:26;;;;;;;9.60;7.07;;;;;;;17.94;80.29;95105.53;5073130;28;20447;-79
2022/06/17 02:04:00;;;;;;;8.03;6.93;;;;;;;18.03;80.09;95106.31;5073281;28;20954;-79
2022/06/17 02:06:33;;;;;;;7.83;7.17;;;;;;;18.04;79.98;95094.69;5037855;28;20476;-79
2022/06/17 02:09:00;;;;;;;10.40;7.07;;;;;;;18.03;79.96;95106.31;5073270;28;20448;-79
2022/06/17 02:11:29;;;;;;;9.17;8.23;;;;;;;18.08;79.58;95112.75;5038462;28;20451;-79
2022/06/17 02:13:56;;;;;;;8.80;8.00;;;;;;;18.11;79.48;95103.63;5037991;28;20448;-79
2022/06/17 02:16:23;;;;;;;8.33;7.60;;;;;;;18.01;79.88;95110.97;5073211;28;20794;-79
2022/06/17 02:18:50;;;;;;;8.30;7.47;;;;;;;18.07;79.36;95110.28;5054699;28;20819;-78
2022/06/17 02:21:24;;;;;;;8.07;6.30;;;;;;;18.08;79.15;95122.56;5072622;28;20456;-79
2022/06/17 02:23:52;;;;;;;7.90;7.20;;;;;;;18.08;79.12;95119.91;5072996;28;20461;-79
2022/06/17 02:26:20;;;;;;;7.53;6.70;;;;;;;18.11;79.10;95124.88;5073016;28;20481;-79
2022/06/17 02:28:50;;;;;;;7.67;7.03;;;;;;;18.12;79.03;95131.84;5072617;28;20960;-79
2022/06/17 02:31:19;;;;;;;7.17;6.57;;;;;;;18.14;78.94;95135.16;5072932;28;20527;-79
2022/06/17 02:33:49;;;;;;;9.90;6.73;;;;;;;18.17;78.50;95127.66;5072892;28;20484;-78
2022/06/17 02:36:22;;;;;;;7.20;6.50;;;;;;;18.21;78.57;95131.66;5072900;28;20455;-79
2022/06/17 02:38:49;;;;;;;7.13;6.60;;;;;;;18.21;78.43;95125.50;5072324;28;20561;-78
2022/06/17 02:41:21;;;;;;;7.13;6.57;;;;;;;18.20;78.20;95129.16;5073103;28;20974;-78
2022/06/17 02:43:57;;;;;;;11.37;6.43;;;;;;;18.22;77.96;95132.50;5072839;28;20479;-79
2022/06/17 02:46:28;;;;;;;6.03;5.53;;;;;;;18.21;78.52;95125.50;5072376;28;20998;-79
2022/06/17 02:48:58;;;;;;;6.97;6.33;;;;;;;18.17;78.00;95119.69;5072511;28;20460;-79
2022/06/17 02:51:27;;;;;;;6.90;6.20;;;;;;;18.20;78.07;95116.69;5072144;28;20823;-79
2022/06/17 02:53:55;;;;;;;6.90;6.20;;;;;;;18.20;78.02;95114.03;5072336;28;20508;-78
2022/06/17 02:56:24;;;;;;;10.63;6.80;;;;;;;18.24;77.94;95120.69;5072550;28;20451;-79
2022/06/17 02:59:03;;;;;;;9.47;6.70;;;;;;;18.25;77.94;95121.53;5072808;28;20505;-79
2022/06/17 03:01:33;;;;;;;7.93;6.60;;;;;;;18.28;78.00;95123.84;5072530;28;20586;-79
2022/06/17 03:04:02;;;;;;;7.07;6.47;;;;;;;18.25;77.92;95121.53;5072608;28;20459;-78
2022/06/17 03:06:34;;;;;;;7.10;6.40;;;;;;;18.26;78.09;95128.50;5072435;28;20542;-79
2022/06/17 03:09:17;;;;;;;12.43;6.07;;;;;;;18.24;77.57;95130.50;5072810;28;20448;-79
2022/06/17 03:11:47;;;;;;;7.13;6.43;;;;;;;18.32;77.78;95133.13;5072501;28;20447;-79
2022/06/17 03:14:15;;;;;;;7.23;6.63;;;;;;;18.33;78.03;95129.47;5072210;28;20445;-79
2022/06/17 03:16:43;;;;;;;9.83;6.37;;;;;;;18.35;77.46;95132.78;5072493;28;20440;-79
2022/06/17 03:19:11;;;;;;;6.10;5.70;;;;;;;18.37;77.98;95125.47;5072908;28;20452;-79
2022/06/17 03:21:38;;;;;;;6.97;6.37;;;;;;;18.40;77.78;95125.09;5071984;28;20468;-79
2022/06/17 03:24:13;;;;;;;10.33;6.20;;;;;;;18.47;78.05;95119.94;5072507;28;20456;-79
2022/06/17 03:26:54;;;;;;;7.30;6.40;;;;;;;18.56;77.44;95127.72;5072088;28;20490;-79
2022/06/17 03:29:25;;;;;;;9.90;7.30;;;;;;;18.67;76.72;95125.69;5072293;28;20440;-79
2022/06/17 03:31:58;;;;;;;6.20;5.70;;;;;;;18.80;75.90;95134.78;5072407;28;20454;-79
2022/06/17 03:34:31;;;;;;;9.00;5.93;;;;;;;18.91;75.19;95133.53;5072240;28;20807;-78
2022/06/17 03:37:03;;;;;;;5.80;5.40;;;;;;;19.09;73.45;95134.09;5053246;28;20464;-79
2022/06/17 03:39:35;;;;;;;6.00;5.50;;;;;;;19.35;72.90;95132.91;5071917;28;20472;-80
2022/06/17 03:42:08;;;;;;;6.50;5.10;;;;;;;19.60;71.74;95137.06;5072085;28;20448;-79
2022/06/17 03:44:41;;;;;;;6.53;5.40;;;;;;;19.92;70.13;95143.09;5072019;28;20453;-78
2022/06/17 03:47:16;;;;;;;5.93;4.80;;;;;;;20.20;68.84;95145.97;5071773;28;20480;-78
2022/06/17 03:49:45;;;;;;;5.17;4.53;;;;;;;20.46;67.46;95143.72;5071939;28;20445;-78
2022/06/17 03:52:20;;;;;;;4.70;4.30;;;;;;;20.82;66.39;95146.47;5072259;28;20923;-78
2022/06/17 03:54:47;;;;;;;5.53;4.97;;;;;;;21.16;65.63;95153.00;5072286;28;20440;-78
2022/06/17 03:57:17;;;;;;;9.00;4.80;;;;;;;21.51;64.00;95152.16;5071751;28;20936;-78
2022/06/17 03:59:49;;;;;;;5.73;4.40;;;;;;;21.81;63.07;95160.03;5071713;28;20819;-78
2022/06/17 04:02:19;;;;;;;5.50;4.10;;;;;;;22.05;62.26;95157.00;5071802;28;20448;-79
2022/06/17 04:04:48;;;;;;;9.30;5.33;;;;;;;22.31;61.59;95153.69;5073637;28;20436;-79
2022/06/17 04:07:15;;;;;;;4.67;4.27;;;;;;;22.55;60.31;95155.03;5075558;28;20480;-78
2022/06/17 04:09:44;;;;;;;5.60;4.80;;;;;;;22.75;59.47;95153.28;5075647;28;20459;-78
2022/06/17 04:12:20;;;;;;;5.07;4.20;;;;;;;22.96;58.60;95162.28;5075566;28;20445;-79
2022/06/17 04:14:53;;;;;;;5.03;4.70;;;;;;;23.10;58.19;95163.97;5075210;28;20452;-78
2022/06/17 04:17:26;;;;;;;8.60;5.03;;;;;;;23.16;57.58;95158.66;5075488;28;20437;-79
2022/06/17 04:20:08;;;;;;;6.47;4.37;;;;;;;23.47;57.11;95163.47;5075390;28;20456;-78
2022/06/17 04:22:36;;;;;;;5.50;5.00;;;;;;;23.73;56.15;95159.22;5075007;28;20524;-78
2022/06/17 04:25:06;;;;;;;5.73;5.27;;;;;;;23.90;55.67;95168.50;5039918;28;20503;-79
2022/06/17 04:30:20;;;;;;;10.90;6.00;;;;;;;24.28;54.94;95171.41;5074818;28;20434;-78
2022/06/17 04:32:49;;;;;;;6.27;5.60;;;;;;;24.46;54.70;95170.78;5061329;28;20437;-79
2022/06/17 04:35:16;;;;;;;8.00;4.87;;;;;;;24.07;56.94;95175.13;5075296;28;20441;-79
2022/06/17 04:37:46;;;;;;;14.23;5.80;;;;;;;24.13;57.56;95175.31;5070982;28;20505;-79
2022/06/17 04:40:26;;;;;;;17.40;5.80;;;;;;;24.33;56.37;95174.31;5055195;28;20450;-79
2022/06/17 04:42:55;;;;;;;9.47;5.47;;;;;;;24.63;56.38;95172.00;5057195;28;20960;-79
2022/06/17 04:45:26;;;;;;;19.33;6.90;;;;;;;24.33;56.67;95170.81;5065491;28;20449;-79
2022/06/17 04:47:53;;;;;;;8.60;6.13;;;;;;;24.35;56.68;95168.75;5074607;28;20975;-79
2022/06/17 04:50:23;;;;;;;12.23;6.30;;;;;;;24.09;58.25;95165.00;5074716;28;20437;-78
2022/06/17 04:52:51;;;;;;;7.07;5.57;;;;;;;23.96;58.86;95165.00;5074590;28;20433;-79
2022/06/17 04:55:22;;;;;;;12.00;6.23;;;;;;;23.98;58.73;95162.94;5074476;28;20981;-79
2022/06/17 04:57:49;;;;;;;18.67;6.30;;;;;;;24.25;58.61;95165.59;5074964;28;20437;-79
2022/06/17 05:00:19;;;;;;;5.70;5.10;;;;;;;24.31;57.92;95178.25;5074913;28;20468;-79
2022/06/17 05:02:49;;;;;;;20.43;6.97;;;;;;;24.42;57.81;95176.78;5074366;28;20446;-80
2022/06/17 05:05:22;;;;;;;22.37;7.60;;;;;;;24.65;57.22;95169.09;5074770;28;20449;-79
2022/06/17 05:07:53;;;;;;;11.13;6.17;;;;;;;25.09;56.45;95170.22;5074372;28;20550;-79
2022/06/17 05:10:29;;;;;;;8.40;5.97;;;;;;;25.33;55.20;95164.94;5074761;28;20456;-79
2022/06/17 05:13:01;;;;;;;5.97;5.47;;;;;;;25.45;54.05;95173.16;5074665;28;20449;-79
2022/06/17 05:15:29;;;;;;;7.03;5.83;;;;;;;25.72;54.33;95168.47;5074239;28;20815;-79
2022/06/17 05:17:58;;;;;;;6.00;5.20;;;;;;;25.85;52.92;95167.56;5074472;28;20529;-79
2022/06/17 05:20:26;;;;;;;6.63;5.93;;;;;;;26.06;52.80;95171.75;5074294;28;20441;-79
2022/06/17 05:22:56;;;;;;;8.90;5.93;;;;;;;26.25;53.01;95165.38;5074220;28;20499;-79
2022/06/17 05:25:27;;;;;;;9.50;7.07;;;;;;;26.32;52.24;95160.78;5055072;28;20425;-79
2022/06/17 05:27:54;;;;;;;6.60;6.00;;;;;;;26.01;51.08;95160.81;5039554;28;20485;-80
2022/06/17 05:30:21;;;;;;;10.93;5.80;;;;;;;26.11;50.82;95159.28;5073710;28;20455;-80
2022/06/17 05:32:50;;;;;;;7.80;5.70;;;;;;;26.13;50.67;95161.75;5074379;28;20450;-79
2022/06/17 05:35:20;;;;;;;6.23;5.73;;;;;;;26.05;51.41;95164.75;5073693;28;20524;-79
2022/06/17 05:37:47;;;;;;;10.23;5.53;;;;;;;26.13;51.63;95167.97;5073708;28;20481;-79
2022/06/17 05:40:14;;;;;;;6.30;5.70;;;;;;;26.38;51.29;95159.09;5073964;28;20479;-79
2022/06/17 05:42:43;;;;;;;9.27;5.83;;;;;;;26.28;51.04;95146.09;5073835;28;20452;-80
2022/06/17 05:45:15;;;;;;;9.67;5.60;;;;;;;26.55;49.48;95150.22;5073828;28;20445;-80
2022/06/17 05:47:42;;;;;;;6.13;5.53;;;;;;;26.91;49.38;95147.78;5073891;28;20481;-80
2022/06/17 05:50:11;;;;;;;7.20;6.47;;;;;;;27.19;48.25;95152.66;5073813;28;20549;-80
2022/06/17 05:52:49;;;;;;;5.43;4.93;;;;;;;27.60;48.67;95147.31;5073657;28;20452;-79
2022/06/17 05:55:16;;;;;;;9.40;6.53;;;;;;;28.06;46.55;95143.13;5073814;28;20456;-80
2022/06/17 05:57:43;;;;;;;16.67;6.23;;;;;;;28.36;46.00;95146.59;5073750;28;20453;-80
2022/06/17 06:00:11;;;;;;;9.03;5.47;;;;;;;28.28;44.80;95135.31;5038331;28;20445;-79
2022/06/17 06:02:38;;;;;;;7.87;5.10;;;;;;;28.35;45.75;95136.84;5073226;28;20544;-80
2022/06/17 06:05:05;;;;;;;5.70;4.73;;;;;;;28.12;44.00;95144.91;5073189;28;20453;-80
2022/06/17 06:07:32;;;;;;;5.43;4.60;;;;;;;27.50;44.95;95141.66;5072865;28;20979;-80
2022/06/17 06:10:01;;;;;;;9.03;5.10;;;;;;;27.73;46.05;95139.03;5072936;28;20948;-79
2022/06/17 06:12:53;;;;;;;7.13;6.43;;;;;;;27.96;46.43;95137.47;5073615;28;20540;-80
2022/06/17 06:15:15;;;;;;;7.13;5.53;;;;;;;28.34;44.50;95135.22;5073072;28;20852;-80
2022/06/17 06:17:45;;;;;;;6.53;6.00;;;;;;;28.30;44.35;95125.09;5072742;28;20803;-80
2022/06/17 06:20:12;;;;;;;8.83;5.53;;;;;;;28.09;44.99;95134.56;5073080;28;20445;-80
2022/06/17 06:22:39;;;;;;;6.67;5.17;;;;;;;27.43;46.98;95128.25;5073161;28;20445;-80
2022/06/17 06:25:09;;;;;;;5.23;4.83;;;;;;;26.67;47.02;95131.47;5037951;28;20454;-80
2022/06/17 06:27:36;;;;;;;5.93;5.33;;;;;;;27.01;48.16;95130.06;5072172;28;20487;-79
2022/06/17 06:30:02;;;;;;;6.53;4.67;;;;;;;27.41;47.15;95130.34;5073141;28;20548;-80
2022/06/17 06:32:29;;;;;;;5.87;5.20;;;;;;;27.41;46.40;95127.66;5072676;28;20445;-80
2022/06/17 06:34:56;;;;;;;5.40;4.60;;;;;;;27.22;46.51;95131.47;5072669;28;20937;-79
2022/06/17 06:37:23;;;;;;;13.60;5.40;;;;;;;27.20;46.42;95130.06;5073102;28;20503;-80
2022/06/17 06:39:50;;;;;;;9.23;6.20;;;;;;;27.06;46.85;95124.00;5073100;28;20448;-79
2022/06/17 06:42:19;;;;;;;9.37;5.30;;;;;;;26.79;48.08;95124.28;5072885;28;20453;-80
2022/06/17 06:44:45;;;;;;;6.70;5.70;;;;;;;27.11;47.46;95127.66;5072481;28;20923;-80
2022/06/17 06:47:13;;;;;;;8.07;4.83;;;;;;;27.39;48.11;95123.56;5072893;28;20477;-80
2022/06/17 06:49:39;;;;;;;6.10;5.53;;;;;;;27.18;47.06;95119.50;5073313;28;20815;-80
2022/06/17 06:52:07;;;;;;;14.70;5.27;;;;;;;27.28;47.91;95110.88;5072735;28;20445;-80
2022/06/17 06:54:34;;;;;;;9.23;6.67;;;;;;;27.09;49.32;95110.06;5037877;28;20819;-80
2022/06/17 06:57:01;;;;;;;7.03;5.47;;;;;;;26.87;48.61;95104.28;5072600;28;20441;-80
2022/06/17 06:59:29;;;;;;;10.20;6.13;;;;;;;27.31;48.66;95108.53;5072861;28;20449;-80
2022/06/17 07:01:56;;;;;;;7.80;6.60;;;;;;;27.45;45.83;95109.97;5073021;28;20451;-80
2022/06/17 07:04:23;;;;;;;7.97;5.60;;;;;;;27.61;45.91;95116.59;5072701;28;20437;-80
2022/06/17 07:06:49;;;;;;;7.33;6.00;;;;;;;27.65;46.96;95120.50;5072894;28;20457;-80
2022/06/17 07:09:16;;;;;;;10.50;5.93;;;;;;;27.60;46.19;95108.75;5073026;28;20452;-79
2022/06/17 07:11:43;;;;;;;11.80;5.60;;;;;;;27.76;46.94;95108.94;5073257;28;20438;-79
2022/06/17 07:14:10;;;;;;;9.73;6.03;;;;;;;27.51;46.13;95113.66;5037315;28;20958;-79
2022/06/17 07:16:38;;;;;;;6.23;5.50;;;;;;;27.86;46.98;95119.16;5072761;28;20441;-80
2022/06/17 07:19:07;;;;;;;12.03;5.60;;;;;;;27.79;48.43;95117.63;5072861;28;20449;-80
2022/06/17 07:21:34;;;;;;;10.63;5.97;;;;;;;27.38;46.95;95117.34;5072584;28;20502;-80
2022/06/17 07:24:01;;;;;;;7.33;6.00;;;;;;;27.46;47.62;95119.72;5072465;28;20441;-81
2022/06/17 07:26:29;;;;;;;7.63;6.50;;;;;;;27.59;46.75;95116.00;5072520;28;20443;-81
2022/06/17 07:28:56;;;;;;;7.27;6.27;;;;;;;27.55;47.20;95108.63;5072431;28;20475;-80
2022/06/17 07:31:23;;;;;;;7.77;6.50;;;;;;;27.74;48.07;95115.59;5072206;28;20449;-80
2022/06/17 07:33:52;;;;;;;7.50;5.27;;;;;;;27.79;46.76;95106.84;5072249;28;20448;-81
2022/06/17 07:41:49;;;;;;;9.50;5.67;;;;;;;28.22;46.52;95101.94;5076488;28;20420;-80
2022/06/17 07:44:18;;;;;;;12.23;6.50;;;;;;;28.52;46.96;95095.63;5075958;28;20994;-80
2022/06/17 07:46:46;;;;;;;7.67;6.60;;;;;;;28.54;46.53;95099.72;5075896;28;20499;-81
2022/06/17 07:49:14;;;;;;;8.97;7.10;;;;;;;28.10;45.66;95087.63;5075689;28;20487;-81
2022/06/17 07:51:41;;;;;;;11.10;7.00;;;;;;;28.01;47.73;95089.84;5075758;28;20436;-80
2022/06/17 07:54:08;;;;;;;14.67;8.07;;;;;;;28.03;47.17;95093.13;5040393;28;20441;-80
2022/06/17 07:56:35;;;;;;;13.00;6.20;;;;;;;28.18;46.63;95089.97;5075821;28;20444;-80
2022/06/17 07:59:02;;;;;;;14.13;7.20;;;;;;;28.20;47.85;95089.75;5075600;28;20521;-81
2022/06/17 08:01:29;;;;;;;9.50;7.50;;;;;;;28.10;47.05;95087.63;5075982;28;20441;-81
2022/06/17 08:03:56;;;;;;;17.73;8.43;;;;;;;28.14;48.04;95082.59;5075325;28;20524;-81
2022/06/17 08:06:24;;;;;;;14.40;7.67;;;;;;;28.14;47.51;95083.41;5075537;28;20433;-80
2022/06/17 08:08:51;;;;;;;10.80;8.47;;;;;;;28.13;47.71;95084.47;5075575;28;20484;-81
2022/06/17 08:11:18;;;;;;;8.80;7.30;;;;;;;28.29;49.06;95086.47;5075505;28;20967;-82
2022/06/17 08:13:45;;;;;;;17.63;7.67;;;;;;;27.91;47.43;95092.31;5075442;28;20441;-81
2022/06/17 08:16:14;;;;;;;11.13;8.37;;;;;;;28.18;48.41;95084.59;5075895;28;20429;-81
2022/06/17 08:18:41;;;;;;;12.13;7.80;;;;;;;28.15;46.80;95092.34;5075188;28;20456;-81
2022/06/17 08:21:08;;;;;;;8.70;7.90;;;;;;;28.29;49.15;95080.25;5075445;28;20453;-82
2022/06/17 08:23:36;;;;;;;16.30;8.83;;;;;;;28.38;47.59;95079.69;5074965;28;20448;-79
2022/06/17 08:26:04;;;;;;;8.77;7.87;;;;;;;27.90;48.82;95079.06;5075407;28;20818;-80
2022/06/17 08:28:31;;;;;;;10.00;8.87;;;;;;;27.67;47.55;95077.94;5074884;28;20487;-79
2022/06/17 08:30:58;;;;;;;16.10;7.87;;;;;;;27.94;48.57;95069.44;5039702;28;20453;-79
2022/06/17 08:33:29;;;;;;;14.43;9.60;;;;;;;28.05;48.21;95065.94;5074749;28;20441;-79
2022/06/17 08:35:59;;;;;;;9.97;9.00;;;;;;;28.01;48.68;95056.66;5075180;28;20494;-79
2022/06/17 08:38:30;;;;;;;14.30;10.00;;;;;;;27.95;47.51;95065.69;5074851;28;20927;-79
2022/06/17 08:41:00;;;;;;;10.47;8.70;;;;;;;28.17;47.79;95055.97;5075206;28;20446;-79
2022/06/17 08:43:50;;;;;;;11.50;9.70;;;;;;;28.13;46.88;95060.19;5074855;28;20449;-80
2022/06/17 08:46:33;;;;;;;10.67;9.37;;;;;;;28.24;48.62;95062.09;5013155;28;20452;-80
2022/06/17 08:49:41;;;;;;;10.90;9.90;;;;;;;28.17;48.67;95061.34;5012671;28;20994;-80
2022/06/17 08:52:21;;;;;;;13.67;9.23;;;;;;;27.93;47.50;95062.41;4897403;29;20450;-80
2022/06/17 08:55:00;;;;;;;14.17;8.63;;;;;;;27.37;47.82;95055.56;4897530;29;20468;-81
2022/06/17 08:57:37;;;;;;;12.80;9.73;;;;;;;27.53;47.91;95054.94;4897411;29;20454;-80
2022/06/17 09:00:12;;;;;;;12.23;9.53;;;;;;;27.76;47.38;95057.72;4897736;29;20461;-80
2022/06/17 09:03:00;;;;;;;11.87;10.50;;;;;;;27.95;48.83;95057.59;4897573;29;20441;-80
2022/06/17 09:05:44;;;;;;;12.47;10.23;;;;;;;27.54;47.86;95053.06;4897438;29;20548;-80
2022/06/17 09:08:34;;;;;;;9.50;8.70;;;;;;;27.88;48.19;95048.78;4897079;29;20489;-80
2022/06/17 09:11:15;;;;;;;12.07;9.40;;;;;;;28.15;48.50;95049.97;4898515;29;20437;-80
2022/06/17 09:13:59;;;;;;;10.83;9.83;;;;;;;28.21;48.00;95046.31;4898922;29;20859;-80
2022/06/17 09:16:37;;;;;;;11.60;9.70;;;;;;;27.77;47.80;95045.88;4898833;29;20461;-80
2022/06/17 09:19:04;;;;;;;10.23;8.30;;;;;;;27.60;49.15;95047.56;4898611;29;20856;-80
2022/06/17 09:21:38;;;;;;;10.00;9.10;;;;;;;27.46;48.17;95046.09;4898714;29;20450;-80
2022/06/17 09:24:08;;;;;;;9.70;8.40;;;;;;;27.36;51.18;95048.53;4941703;29;20439;-80
2022/06/17 09:26:42;;;;;;;9.20;8.30;;;;;;;27.61;48.82;95041.09;4955283;29;20792;-81
2022/06/17 09:29:13;;;;;;;18.93;9.87;;;;;;;27.71;49.51;95040.56;5020865;28;20511;-80
2022/06/17 09:31:47;;;;;;;11.77;9.60;;;;;;;27.84;48.64;95044.94;5074627;28;20456;-81
2022/06/17 09:34:21;;;;;;;14.73;10.20;;;;;;;27.91;48.63;95040.22;5077727;28;20528;-80
2022/06/17 09:36:51;;;;;;;13.73;9.87;;;;;;;27.73;47.72;95043.84;5084471;28;20453;-80
2022/06/17 09:39:23;;;;;;;11.33;8.70;;;;;;;27.80;48.89;95044.56;5074899;28;20445;-81
2022/06/17 09:41:58;;;;;;;10.93;8.20;;;;;;;27.80;51.06;95035.66;5073846;28;20449;-80
2022/06/17 09:44:35;;;;;;;16.37;10.00;;;;;;;27.61;51.85;95037.59;5073729;28;20523;-81
2022/06/17 09:47:09;;;;;;;9.47;8.60;;;;;;;27.51;50.59;95048.13;5073912;28;20437;-80
2022/06/17 09:49:42;;;;;;;10.50;9.50;;;;;;;27.35;48.24;95036.13;5073631;28;20526;-81
2022/06/17 09:52:13;;;;;;;11.07;9.00;;;;;;;27.31;49.78;95040.34;5073766;28;20449;-81
2022/06/17 09:54:45;;;;;;;10.73;8.30;;;;;;;27.32;50.56;95036.59;5073270;28;20453;-80
2022/06/17 09:57:18;;;;;;;9.67;8.77;;;;;;;27.30;51.91;95036.00;5073685;28;20971;-80
2022/06/17 09:59:51;;;;;;;19.83;9.53;;;;;;;27.39;51.64;95037.31;5073321;28;20455;-80
2022/06/17 10:02:22;;;;;;;11.33;10.07;;;;;;;27.27;49.61;95036.47;5073315;28;20437;-80
2022/06/17 10:04:52;;;;;;;15.03;8.70;;;;;;;27.03;50.45;95030.16;5073321;28;20449;-80
2022/06/17 10:07:26;;;;;;;13.33;9.23;;;;;;;27.19;51.95;95021.44;5073403;28;20448;-80
2022/06/17 10:10:06;;;;;;;12.63;7.70;;;;;;;27.43;47.33;95027.69;5073396;28;20527;-80
2022/06/17 10:12:42;;;;;;;10.60;7.83;;;;;;;27.58;46.36;95020.00;5073214;28;20459;-80
2022/06/17 10:15:28;;;;;;;8.00;7.13;;;;;;;27.42;43.85;95026.06;5073055;28;20453;-80
2022/06/17 10:20:58;;;;;;;10.10;8.00;;;;;;;27.43;45.32;95012.34;5073104;28;20433;-80
2022/06/17 10:23:40;;;;;;;8.50;7.17;;;;;;;27.51;45.85;95015.78;5072971;28;20441;-80
2022/06/17 10:26:19;;;;;;;10.07;7.47;;;;;;;27.39;44.95;95021.13;5072873;28;20453;-80
2022/06/17 10:29:06;;;;;;;10.10;9.17;;;;;;;27.57;46.03;95018.34;5072965;28;20484;-80
2022/06/17 10:31:37;;;;;;;9.73;7.93;;;;;;;27.52;45.31;95015.53;5072864;28;20931;-80
2022/06/17 10:34:12;;;;;;;11.60;7.70;;;;;;;27.49;46.65;95015.19;5072739;28;20853;-80
2022/06/17 10:36:40;;;;;;;9.60;8.70;;;;;;;27.59;46.74;95010.84;5054248;28;20517;-80
2022/06/17 10:39:10;;;;;;;9.10;8.20;;;;;;;27.64;45.03;95012.88;5072582;28;20499;-80
2022/06/17 10:41:54;;;;;;;8.53;7.73;;;;;;;27.76;43.17;95014.56;5131217;27;20631;-81
2022/06/17 10:44:25;;;;;;;12.73;8.40;;;;;;;27.77;44.51;95008.09;5131311;28;20451;-81
2022/06/17 10:46:59;;;;;;;13.80;7.63;;;;;;;27.75;44.52;95009.38;5130911;27;20451;-79
2022/06/17 10:49:30;;;;;;;11.00;8.70;;;;;;;27.72;45.68;95007.97;5131031;28;20947;-79
2022/06/17 10:51:59;;;;;;;10.90;8.30;;;;;;;27.54;45.93;95002.66;5131128;28;20453;-82
2022/06/17 10:54:30;;;;;;;13.43;7.60;;;;;;;27.62;46.32;95005.03;5130773;27;20994;-82
2022/06/17 10:57:04;;;;;;;8.67;7.80;;;;;;;27.80;44.57;94996.03;5131083;28;20788;-79
2022/06/17 10:59:34;;;;;;;13.70;7.93;;;;;;;27.97;45.24;95007.72;5061078;28;20442;-79
2022/06/17 11:02:01;;;;;;;8.00;7.40;;;;;;;27.99;45.08;95002.91;5130958;27;20439;-79
2022/06/17 11:04:29;;;;;;;9.00;8.10;;;;;;;27.97;45.51;95006.91;5130649;28;20439;-81
2022/06/17 11:07:00;;;;;;;10.17;9.17;;;;;;;27.81;44.52;95000.38;5131117;28;20442;-81
2022/06/17 11:09:29;;;;;;;11.83;8.47;;;;;;;27.58;45.49;95008.41;5130729;28;20495;-81
2022/06/17 11:12:04;;;;;;;9.00;8.20;;;;;;;27.45;44.04;95004.03;5130791;27;20446;-81
2022/06/17 11:14:36;;;;;;;12.27;8.57;;;;;;;27.60;45.96;94995.50;5130942;27;20525;-81
2022/06/17 11:17:12;;;;;;;8.93;7.87;;;;;;;27.74;44.26;95000.47;5130861;28;20935;-81
2022/06/17 11:19:41;;;;;;;11.90;7.73;;;;;;;27.71;42.22;95003.63;5130472;27;21047;-81
2022/06/17 11:22:19;;;;;;;10.23;7.70;;;;;;;27.75;42.76;94996.69;5130443;28;20816;-81
2022/06/17 11:24:54;;;;;;;10.33;7.37;;;;;;;27.84;41.76;94989.09;5130218;28;20448;-80
2022/06/17 11:27:31;;;;;;;11.70;8.67;;;;;;;28.02;44.06;94988.97;5130404;28;20443;-80
2022/06/17 11:30:22;;;;;;;10.60;8.00;;;;;;;27.93;46.38;94986.88;5130102;28;20994;-80
2022/06/17 11:32:50;;;;;;;10.20;7.33;;;;;;;27.66;44.80;94986.50;5130311;27;20443;-83
2022/06/17 11:35:30;;;;;;;9.03;8.10;;;;;;;27.53;47.82;94984.84;5111051;28;20451;-80
2022/06/17 11:38:00;;;;;;;9.93;8.87;;;;;;;27.61;45.69;94979.09;5130578;28;20441;-80
2022/06/17 11:40:29;;;;;;;10.47;8.80;;;;;;;27.83;44.75;94971.28;5094281;28;20487;-79
2022/06/17 11:43:02;;;;;;;15.60;7.50;;;;;;;27.57;45.55;94977.09;5130153;27;20447;-81
2022/06/17 11:45:34;;;;;;;11.90;7.93;;;;;;;27.53;44.30;94965.97;5130329;27;20519;-80
2022/06/17 11:48:04;;;;;;;8.30;7.50;;;;;;;27.53;43.54;94968.66;5130195;28;20516;-81
2022/06/17 11:50:34;;;;;;;13.83;8.47;;;;;;;27.41;44.92;94971.31;5129874;28;20442;-81
2022/06/17 11:53:05;;;;;;;11.70;8.00;;;;;;;27.21;45.52;94972.72;5117191;28;20443;-80
2022/06/17 11:55:40;;;;;;;10.40;9.40;;;;;;;26.87;47.56;94964.25;5116192;28;20434;-80
2022/06/17 11:58:08;;;;;;;13.27;9.63;;;;;;;26.64;49.01;94966.88;5116249;28;20460;-80
2022/06/17 12:00:46;;;;;;;10.90;9.73;;;;;;;26.57;49.18;94971.50;5115840;28;20486;-81